createdAt,value
2022-10-02T00:01:53.746Z,97467.66
2022-10-02T00:04:20.073Z,97456.63
2022-10-02T00:06:46.033Z,97460.63
2022-10-02T00:09:11.975Z,97468.09
2022-10-02T00:11:38.280Z,97473.22
2022-10-02T00:14:04.486Z,97484.50
2022-10-02T00:16:34.940Z,97487.97
2022-10-02T00:19:01.979Z,97479.75
2022-10-02T00:21:27.897Z,97490.34
2022-10-02T00:23:53.819Z,97491.19
2022-10-02T00:26:19.803Z,97490.44
2022-10-02T00:28:45.719Z,97498.56
2022-10-02T00:31:11.640Z,97499.94
2022-10-02T00:33:37.602Z,97504.22
2022-10-02T00:36:03.516Z,97507.31
2022-10-02T00:38:30.356Z,97498.81
2022-10-02T00:40:58.822Z,97502.66
2022-10-02T00:43:24.761Z,97507.34
2022-10-02T00:45:51.670Z,97499.00
2022-10-02T00:48:17.637Z,97485.94
2022-10-02T00:50:43.693Z,97486.94
2022-10-02T00:53:09.618Z,97496.13
2022-10-02T00:55:35.549Z,97492.72
2022-10-02T00:58:01.458Z,97505.34
2022-10-02T01:00:28.294Z,97508.16
2022-10-02T01:02:54.194Z,97502.88
2022-10-02T01:05:20.122Z,97490.06
2022-10-02T01:07:47.017Z,97493.28
2022-10-02T01:10:12.942Z,97492.94
2022-10-02T01:12:38.868Z,97486.00
2022-10-02T01:15:05.408Z,97474.63
2022-10-02T01:17:31.345Z,97474.47
2022-10-02T01:19:58.237Z,97464.53
2022-10-02T01:22:24.162Z,97460.41
2022-10-02T01:24:50.115Z,97470.97
2022-10-02T01:27:16.028Z,97459.56
2022-10-02T01:29:42.934Z,97455.88
2022-10-02T01:32:09.514Z,97447.78
2022-10-02T01:34:35.501Z,97436.16
2022-10-02T01:37:01.450Z,97431.94
2022-10-02T01:39:27.379Z,97434.81
2022-10-02T01:41:53.342Z,97439.47
2022-10-02T01:44:19.250Z,97443.53
2022-10-02T01:46:45.447Z,97455.50
2022-10-02T01:49:11.336Z,97450.41
2022-10-02T01:51:37.846Z,97453.25
2022-10-02T01:54:04.083Z,97454.75
2022-10-02T01:56:30.267Z,97446.81
2022-10-02T01:58:57.349Z,97445.41
2022-10-02T02:01:23.636Z,97437.28
2022-10-02T02:06:30.298Z,97444.97
2022-10-02T02:09:01.686Z,97452.91
2022-10-02T02:11:28.171Z,97448.84
2022-10-02T03:57:20.545Z,97613.59
2022-10-02T03:59:46.439Z,97631.91
2022-10-02T04:02:13.337Z,97626.88
2022-10-02T04:04:39.243Z,97632.69
2022-10-02T04:07:05.167Z,97630.34
2022-10-02T04:09:31.061Z,97621.91
2022-10-02T04:11:57.026Z,97628.03
2022-10-02T04:14:22.979Z,97629.03
2022-10-02T04:16:49.805Z,97614.91
2022-10-02T04:19:15.702Z,97603.63
2022-10-02T04:21:41.699Z,97596.81
2022-10-02T04:24:08.534Z,97607.72
2022-10-02T04:26:34.604Z,97609.97
2022-10-02T04:29:01.621Z,97635.63
2022-10-02T04:31:27.605Z,97631.66
2022-10-02T04:33:53.587Z,97640.19
2022-10-02T04:36:19.513Z,97645.97
2022-10-02T04:38:45.442Z,97644.47
2022-10-02T04:41:11.371Z,97653.28
2022-10-02T04:43:38.254Z,97659.84
2022-10-02T04:46:04.245Z,97663.09
2022-10-02T04:48:30.265Z,97662.78
2022-10-02T04:50:56.447Z,97673.56
2022-10-02T04:53:22.381Z,97680.34
2022-10-02T04:55:48.284Z,97681.97
2022-10-02T04:58:14.231Z,97690.63
2022-10-02T05:00:40.205Z,97692.41
2022-10-02T05:03:06.154Z,97688.59
2022-10-02T05:05:32.813Z,97680.19
2022-10-02T05:07:58.737Z,97687.91
2022-10-02T05:10:24.645Z,97678.53
2022-10-02T05:12:50.573Z,97675.38
2022-10-02T05:15:16.471Z,97693.72
2022-10-02T05:17:42.380Z,97691.88
2022-10-02T05:20:08.948Z,97688.88
2022-10-02T05:22:34.867Z,97694.69
2022-10-02T05:25:01.059Z,97696.44
2022-10-02T05:27:26.961Z,97705.00
2022-10-02T05:29:53.817Z,97714.53
2022-10-02T05:32:19.773Z,97725.47
2022-10-02T05:34:45.709Z,97728.47
2022-10-02T05:37:12.616Z,97740.16
2022-10-02T05:39:38.517Z,97735.50
2022-10-02T05:42:04.447Z,97734.31
2022-10-02T05:44:31.110Z,97733.94
2022-10-02T05:46:57.208Z,97724.84
2022-10-02T05:49:23.118Z,97722.03
2022-10-02T05:51:49.819Z,97726.19
2022-10-02T05:54:16.570Z,97739.22
2022-10-02T05:56:42.997Z,97727.75
2022-10-02T05:59:09.668Z,97727.31
2022-10-02T06:01:35.745Z,97729.16
2022-10-02T06:04:01.705Z,97744.84
2022-10-02T06:06:27.610Z,97744.84
2022-10-02T06:08:55.589Z,97737.59
2022-10-02T06:11:21.527Z,97729.53
2022-10-02T06:13:47.435Z,97737.88
2022-10-02T06:16:13.377Z,97746.69
2022-10-02T06:18:39.325Z,97758.22
2022-10-02T06:21:05.258Z,97760.88
2022-10-02T06:23:31.198Z,97767.03
2022-10-02T06:25:57.098Z,97775.22
2022-10-02T06:28:23.095Z,97775.66
2022-10-02T06:30:49.754Z,97770.81
2022-10-02T06:33:15.964Z,97766.19
2022-10-02T06:35:42.194Z,97763.34
2022-10-02T06:38:09.823Z,97765.78
2022-10-02T06:40:36.065Z,97771.88
2022-10-02T06:43:02.302Z,97773.31
2022-10-02T06:45:30.120Z,97782.47
2022-10-02T07:09:53.531Z,97771.25
2022-10-02T07:12:19.502Z,97772.19
2022-10-02T07:14:45.415Z,97778.69
2022-10-02T07:17:11.345Z,97781.91
2022-10-02T07:19:37.286Z,97785.75
2022-10-02T07:22:15.154Z,97778.81
2022-10-02T07:24:50.117Z,97785.28
2022-10-02T07:27:16.015Z,97776.19
2022-10-02T07:29:42.721Z,97787.75
2022-10-02T07:32:08.648Z,97785.88
2022-10-02T07:34:35.329Z,97791.72
2022-10-02T07:37:01.529Z,97796.00
2022-10-02T07:39:28.231Z,97787.28
2022-10-02T07:41:54.131Z,97783.03
2022-10-02T07:44:20.099Z,97778.84
2022-10-02T07:46:46.061Z,97778.03
2022-10-02T07:49:12.012Z,97775.59
2022-10-02T07:51:37.913Z,97768.63
2022-10-02T07:54:03.880Z,97774.34
2022-10-02T07:56:29.799Z,97772.88
2022-10-02T07:58:55.718Z,97773.38
2022-10-02T08:01:21.624Z,97774.84
2022-10-02T08:03:47.529Z,97772.75
2022-10-02T08:06:14.287Z,97766.84
2022-10-02T08:08:40.185Z,97753.09
2022-10-02T08:11:07.012Z,97757.53
2022-10-02T08:13:32.925Z,97752.84
2022-10-02T08:15:58.913Z,97750.94
2022-10-02T08:18:40.294Z,97745.84
2022-10-02T08:21:07.174Z,97748.78
2022-10-02T08:23:33.105Z,97740.44
2022-10-02T08:25:59.194Z,97738.84
2022-10-02T08:28:25.185Z,97740.03
2022-10-02T08:30:51.131Z,97726.69
2022-10-02T08:33:17.074Z,97729.41
2022-10-02T08:35:43.037Z,97727.53
2022-10-02T08:38:09.017Z,97732.50
2022-10-02T08:40:35.856Z,97730.63
2022-10-02T08:43:01.749Z,97728.91
2022-10-02T08:45:27.750Z,97722.69
2022-10-02T08:47:53.683Z,97717.44
2022-10-02T08:50:19.602Z,97718.25
2022-10-02T08:52:45.518Z,97712.28
2022-10-02T08:55:12.271Z,97708.53
2022-10-02T08:57:38.223Z,97712.75
2022-10-02T09:00:04.171Z,97715.09
2022-10-02T09:02:30.810Z,97710.97
2022-10-02T09:04:56.776Z,97702.38
2022-10-02T09:07:26.069Z,97717.78
2022-10-02T09:09:54.032Z,97717.03
2022-10-02T09:12:20.867Z,97704.06
2022-10-02T09:14:46.823Z,97701.13
2022-10-02T09:17:12.753Z,97705.09
2022-10-02T09:19:38.715Z,97704.03
2022-10-02T09:22:04.648Z,97701.03
2022-10-02T09:24:30.571Z,97688.06
2022-10-02T09:26:56.479Z,97689.16
2022-10-02T09:29:22.438Z,97695.50
2022-10-02T09:34:14.958Z,97695.84
2022-10-02T09:36:40.915Z,97700.13
2022-10-02T09:39:07.642Z,97694.22
2022-10-02T09:41:33.544Z,97697.06
2022-10-02T09:43:59.816Z,97698.59
2022-10-02T09:46:27.186Z,97696.41
2022-10-02T09:48:53.654Z,97698.25
2022-10-02T09:51:21.331Z,97702.66
2022-10-02T09:53:47.584Z,97705.81
2022-10-02T09:56:13.842Z,97704.00
2022-10-02T09:58:40.077Z,97703.63
2022-10-02T10:01:06.411Z,97706.25
2022-10-02T10:03:33.627Z,97696.72
2022-10-02T12:10:07.007Z,97605.84
2022-10-02T12:12:32.935Z,97607.81
2022-10-02T12:14:58.883Z,97607.78
2022-10-02T12:17:24.856Z,97602.09
2022-10-02T12:19:50.767Z,97608.00
2022-10-02T12:22:17.597Z,97605.09
2022-10-02T12:24:43.495Z,97597.59
2022-10-02T12:27:09.508Z,97595.13
2022-10-02T12:29:35.464Z,97593.44
2022-10-02T12:32:01.425Z,97581.75
2022-10-02T12:34:28.715Z,97586.16
2022-10-02T12:36:54.635Z,97579.44
2022-10-02T12:39:22.160Z,97582.59
2022-10-02T12:41:48.232Z,97560.47
2022-10-02T12:44:14.130Z,97557.78
2022-10-02T12:46:40.940Z,97554.09
2022-10-02T12:49:06.881Z,97557.81
2022-10-02T12:51:32.835Z,97548.94
2022-10-02T12:53:59.617Z,97547.47
2022-10-02T12:56:25.531Z,97564.47
2022-10-02T12:58:51.456Z,97571.16
2022-10-02T13:01:17.369Z,97565.38
2022-10-02T13:03:43.345Z,97560.69
2022-10-02T13:06:10.192Z,97557.44
2022-10-02T13:08:36.095Z,97551.16
2022-10-02T13:11:02.784Z,97565.13
2022-10-02T13:13:28.697Z,97556.44
2022-10-02T13:15:54.831Z,97537.81
2022-10-02T13:18:21.679Z,97557.00
2022-10-02T13:20:47.591Z,97556.03
2022-10-02T13:23:13.524Z,97547.47
2022-10-02T13:25:39.417Z,97567.88
2022-10-02T13:28:05.829Z,97564.88
2022-10-02T13:30:31.778Z,97525.44
2022-10-02T13:32:57.812Z,97532.34
2022-10-02T13:35:23.783Z,97568.13
2022-10-02T13:37:49.696Z,97574.53
2022-10-02T13:40:15.690Z,97570.44
2022-10-02T13:42:41.672Z,97548.91
2022-10-02T13:45:08.312Z,97549.47
2022-10-02T13:47:34.253Z,97552.72
2022-10-02T13:50:00.164Z,97539.78
2022-10-02T13:52:26.086Z,97522.69
2022-10-02T13:54:52.007Z,97512.19
2022-10-02T13:57:18.715Z,97514.16
2022-10-02T13:59:44.722Z,97507.13
2022-10-02T14:02:10.667Z,97501.69
2022-10-02T14:04:37.419Z,97494.88
2022-10-02T14:07:03.329Z,97491.81
2022-10-02T14:09:29.241Z,97482.03
2022-10-02T14:11:55.159Z,97485.25
2022-10-02T14:14:21.100Z,97482.81
2022-10-02T14:16:47.824Z,97468.03
2022-10-02T14:19:14.824Z,97454.38
2022-10-02T14:21:40.887Z,97441.78
2022-10-02T14:24:06.906Z,97442.50
2022-10-02T14:26:33.717Z,97442.47
2022-10-02T14:28:59.640Z,97441.16
2022-10-02T14:31:25.633Z,97424.31
2022-10-02T14:33:51.587Z,97415.75
2022-10-02T14:36:17.590Z,97406.00
2022-10-02T14:38:44.271Z,97396.13
2022-10-02T14:41:10.278Z,97391.66
2022-10-02T14:43:36.212Z,97388.75
2022-10-02T14:46:03.064Z,97376.97
2022-10-02T14:48:29.372Z,97372.47
2022-10-02T14:50:55.553Z,97368.47
2022-10-02T14:53:22.955Z,97368.44
2022-10-02T14:55:49.231Z,97361.50
2022-10-02T14:58:15.435Z,97361.00
2022-10-02T15:00:41.675Z,97357.25
2022-10-02T15:03:09.338Z,97354.31
2022-10-02T17:02:30.809Z,97483.66
2022-10-02T17:04:56.843Z,97482.47
2022-10-02T17:07:22.753Z,97476.25
2022-10-02T17:09:48.700Z,97463.22
2022-10-02T17:12:15.318Z,97478.19
2022-10-02T17:14:41.261Z,97478.31
2022-10-02T17:17:07.203Z,97486.41
2022-10-02T17:19:33.150Z,97485.28
2022-10-02T17:21:59.166Z,97478.31
2022-10-02T17:24:25.103Z,97473.00
2022-10-02T17:26:51.962Z,97483.34
2022-10-02T17:29:17.909Z,97478.00
2022-10-02T17:31:44.252Z,97480.84
2022-10-02T17:34:10.906Z,97480.53
2022-10-02T17:36:37.167Z,97496.25
2022-10-02T17:39:03.304Z,97497.06
2022-10-02T17:41:29.284Z,97498.84
2022-10-02T17:43:55.147Z,97488.50
2022-10-02T17:46:21.053Z,97490.09
2022-10-02T17:48:46.975Z,97505.78
2022-10-02T17:51:32.603Z,97518.38
2022-10-02T17:53:59.609Z,97512.97
2022-10-02T17:56:26.271Z,97533.09
2022-10-02T17:58:53.003Z,97537.94
2022-10-02T18:01:18.956Z,97554.28
2022-10-02T18:03:44.950Z,97554.09
2022-10-02T18:06:10.869Z,97549.06
2022-10-02T18:08:37.544Z,97542.28
2022-10-02T18:11:03.470Z,97531.75
2022-10-02T18:13:29.405Z,97524.94
2022-10-02T18:15:55.912Z,97510.41
2022-10-02T18:18:21.877Z,97525.53
2022-10-02T18:20:47.777Z,97518.53
2022-10-02T18:23:13.729Z,97524.78
2022-10-02T18:25:39.661Z,97521.81
2022-10-02T18:28:06.342Z,97525.63
2022-10-02T18:30:32.314Z,97522.50
2022-10-02T18:32:58.253Z,97507.75
2022-10-02T18:35:24.169Z,97506.19
2022-10-02T18:37:51.018Z,97504.88
2022-10-02T18:40:16.924Z,97500.75
2022-10-02T18:42:42.834Z,97491.03
2022-10-02T18:45:08.759Z,97494.13
2022-10-02T18:47:34.683Z,97492.53
2022-10-02T18:50:00.593Z,97494.59
2022-10-02T18:52:26.528Z,97491.00
2022-10-02T18:54:52.440Z,97483.97
2022-10-02T18:57:18.357Z,97489.16
2022-10-02T18:59:44.939Z,97482.59
2022-10-02T19:02:10.953Z,97480.88
2022-10-02T19:04:36.880Z,97478.03
2022-10-02T19:07:02.793Z,97478.19
2022-10-02T19:09:28.752Z,97483.66
2022-10-02T19:11:54.673Z,97490.13
2022-10-02T19:14:21.440Z,97484.94
2022-10-02T19:16:47.378Z,97493.97
2022-10-02T19:19:13.383Z,97493.84
2022-10-02T19:21:39.377Z,97496.50
2022-10-02T19:24:05.320Z,97497.44
2022-10-02T19:26:32.015Z,97498.38
2022-10-02T19:28:57.986Z,97506.25
2022-10-02T19:31:23.915Z,97511.66
2022-10-02T19:33:50.566Z,97511.66
2022-10-02T19:36:16.515Z,97500.44
2022-10-02T19:38:42.786Z,97508.16
2022-10-02T19:41:08.997Z,97505.50
2022-10-02T19:43:35.313Z,97507.50
2022-10-02T19:46:01.702Z,97506.22
2022-10-02T19:48:28.002Z,97509.09
2022-10-02T19:50:54.262Z,97501.38
2022-10-02T19:53:20.600Z,97493.84
2022-10-02T19:55:46.653Z,97492.09
2022-10-02T22:01:00.839Z,97547.28
2022-10-02T22:03:26.832Z,97552.75
2022-10-02T22:05:53.640Z,97545.59
2022-10-02T22:08:19.674Z,97550.75
2022-10-02T22:10:46.318Z,97540.75
2022-10-02T22:13:12.252Z,97542.94
2022-10-02T22:15:38.307Z,97542.72
2022-10-02T22:18:04.328Z,97544.41
2022-10-02T22:20:30.275Z,97551.88
2022-10-02T22:22:57.004Z,97550.34
2022-10-02T22:25:22.946Z,97551.28
2022-10-02T22:27:48.945Z,97552.47
2022-10-02T22:30:14.945Z,97569.16
2022-10-02T22:32:41.669Z,97555.69
2022-10-02T22:35:07.653Z,97552.03
2022-10-02T22:37:34.029Z,97547.66
2022-10-02T22:39:59.984Z,97550.91
2022-10-02T22:42:26.577Z,97557.91
2022-10-02T22:44:52.550Z,97555.53
2022-10-02T22:47:18.489Z,97563.09
2022-10-02T22:49:44.423Z,97566.53
2022-10-02T22:52:11.314Z,97578.81
2022-10-02T22:54:37.293Z,97575.56
2022-10-02T22:57:03.215Z,97589.03
2022-10-02T22:59:30.049Z,97595.34
2022-10-02T23:01:56.147Z,97579.78
2022-10-02T23:04:22.136Z,97582.59
2022-10-02T23:06:48.076Z,97579.19
2022-10-02T23:09:15.029Z,97579.19
2022-10-02T23:11:41.461Z,97590.81
2022-10-02T23:14:07.683Z,97588.53
2022-10-02T23:16:33.613Z,97580.81
2022-10-02T23:19:00.326Z,97574.66
2022-10-02T23:21:26.273Z,97587.63
2022-10-02T23:23:52.984Z,97598.78
2022-10-02T23:26:19.178Z,97606.50
2022-10-02T23:28:45.128Z,97596.09
2022-10-02T23:31:11.963Z,97599.44
2022-10-02T23:33:37.936Z,97593.75
2022-10-02T23:36:03.897Z,97593.28
2022-10-02T23:38:30.499Z,97594.53
2022-10-02T23:40:56.429Z,97592.34
2022-10-02T23:43:23.328Z,97593.50
2022-10-02T23:45:49.285Z,97592.94
2022-10-02T23:48:15.244Z,97600.09
2022-10-02T23:50:41.176Z,97595.44
2022-10-02T23:53:07.133Z,97600.03
2022-10-02T23:55:33.064Z,97594.66
2022-10-02T23:57:59.604Z,97596.31
